Terminal Aerodrome Forecast
Issued by NWS

Home | Current Version | Previous Version | Text Only | Print | Product List | Glossary On
Versions: 1 2 3 4 5 6 7 8 9 10 11 12 13 14
047
FTUS45 KTFX 131735
TAFLWT
TAF
KLWT 131735Z 1318/1418 29012G22KT P6SM BKN090
     FM140000 28012KT P6SM SCT090 BKN150
     FM140700 26012KT P6SM BKN100=

USA.gov is the U.S. government's official web portal to all federal, state and local government web resources and services.